Terminal Aerodrome Forecast
Issued by NWS Cleveland, OH

Home | Current Version | Previous Version | Graphics & Text | Print | Product List | Glossary On
Versions: 1 2 3 4 5 6 7 8 9 10 11 12 13 14 15 16 17 18 19 20 21 22 23 24 25 26 27 28 29 30
000
FTUS41 KCLE 181100
TAFCAK
TAF
KCAK 181122Z 1812/1912 29014G22KT P6SM -RA OVC018
      TEMPO 1812/1815 6SM -RA BR SCT018 OVC035
     FM181500 30014G20KT P6SM VCSH OVC025
     FM190500 32010KT P6SM SCT025 OVC050
     FM190900 32008KT P6SM SCT100=

USA.gov is the U.S. government's official web portal to all federal, state and local government web resources and services.